sensor_id;sensor_type;location;lat;lon;timestamp;P1;durP1;ratioP1;P2;durP2;ratioP2
74196;SDS011;62555;52.678;4.900;2023-07-20T00:00:41;1.33;;;1.00;;
74196;SDS011;62555;52.678;4.900;2023-07-20T00:03:10;2.27;;;1.07;;
74196;SDS011;62555;52.678;4.900;2023-07-20T00:05:35;0.88;;;0.70;;
74196;SDS011;62555;52.678;4.900;2023-07-20T00:08:00;0.70;;;0.57;;
74196;SDS011;62555;52.678;4.900;2023-07-20T00:10:25;0.60;;;0.60;;
74196;SDS011;62555;52.678;4.900;2023-07-20T00:12:51;1.17;;;0.80;;
74196;SDS011;62555;52.678;4.900;2023-07-20T00:15:16;1.20;;;0.73;;
74196;SDS011;62555;52.678;4.900;2023-07-20T00:17:41;1.37;;;1.03;;
74196;SDS011;62555;52.678;4.900;2023-07-20T00:20:07;0.68;;;0.60;;
74196;SDS011;62555;52.678;4.900;2023-07-20T00:22:32;2.80;;;1.02;;
74196;SDS011;62555;52.678;4.900;2023-07-20T00:24:57;1.27;;;0.57;;
74196;SDS011;62555;52.678;4.900;2023-07-20T00:27:22;0.83;;;0.80;;
74196;SDS011;62555;52.678;4.900;2023-07-20T00:29:48;0.83;;;0.70;;
74196;SDS011;62555;52.678;4.900;2023-07-20T00:32:13;1.70;;;0.63;;
74196;SDS011;62555;52.678;4.900;2023-07-20T00:34:38;1.60;;;0.80;;
74196;SDS011;62555;52.678;4.900;2023-07-20T00:37:03;1.23;;;0.70;;
74196;SDS011;62555;52.678;4.900;2023-07-20T00:39:28;1.00;;;0.60;;
74196;SDS011;62555;52.678;4.900;2023-07-20T00:41:54;1.00;;;0.50;;
74196;SDS011;62555;52.678;4.900;2023-07-20T00:44:19;1.25;;;0.80;;
74196;SDS011;62555;52.678;4.900;2023-07-20T00:46:44;1.40;;;0.50;;
74196;SDS011;62555;52.678;4.900;2023-07-20T00:49:11;1.10;;;0.70;;
74196;SDS011;62555;52.678;4.900;2023-07-20T00:51:36;1.55;;;0.73;;
74196;SDS011;62555;52.678;4.900;2023-07-20T00:54:01;0.70;;;0.70;;
74196;SDS011;62555;52.678;4.900;2023-07-20T00:56:27;1.45;;;0.70;;
74196;SDS011;62555;52.678;4.900;2023-07-20T00:58:53;1.40;;;0.65;;
74196;SDS011;62555;52.678;4.900;2023-07-20T01:01:18;0.73;;;0.67;;
74196;SDS011;62555;52.678;4.900;2023-07-20T01:03:43;0.63;;;0.55;;
74196;SDS011;62555;52.678;4.900;2023-07-20T01:08:42;1.10;;;0.67;;
74196;SDS011;62555;52.678;4.900;2023-07-20T01:11:28;0.80;;;0.50;;
74196;SDS011;62555;52.678;4.900;2023-07-20T01:13:56;0.75;;;0.63;;
74196;SDS011;62555;52.678;4.900;2023-07-20T01:16:22;1.02;;;0.85;;
74196;SDS011;62555;52.678;4.900;2023-07-20T01:18:47;0.83;;;0.50;;
74196;SDS011;62555;52.678;4.900;2023-07-20T01:21:13;0.80;;;0.40;;
74196;SDS011;62555;52.678;4.900;2023-07-20T01:24:05;0.65;;;0.50;;
74196;SDS011;62555;52.678;4.900;2023-07-20T01:31:34;0.65;;;0.60;;
74196;SDS011;62555;52.678;4.900;2023-07-20T01:34:00;0.77;;;0.43;;
74196;SDS011;62555;52.678;4.900;2023-07-20T01:36:26;1.55;;;0.60;;
74196;SDS011;62555;52.678;4.900;2023-07-20T01:38:53;0.45;;;0.45;;
74196;SDS011;62555;52.678;4.900;2023-07-20T01:41:18;0.85;;;0.70;;
74196;SDS011;62555;52.678;4.900;2023-07-20T01:43:44;1.05;;;0.60;;
74196;SDS011;62555;52.678;4.900;2023-07-20T01:46:09;1.20;;;0.60;;
74196;SDS011;62555;52.678;4.900;2023-07-20T01:48:35;1.20;;;0.50;;
74196;SDS011;62555;52.678;4.900;2023-07-20T01:51:00;1.33;;;0.60;;
74196;SDS011;62555;52.678;4.900;2023-07-20T01:53:25;0.80;;;0.57;;
74196;SDS011;62555;52.678;4.900;2023-07-20T01:55:53;0.60;;;0.45;;
74196;SDS011;62555;52.678;4.900;2023-07-20T01:58:19;0.47;;;0.47;;
74196;SDS011;62555;52.678;4.900;2023-07-20T02:00:44;0.60;;;0.57;;
74196;SDS011;62555;52.678;4.900;2023-07-20T02:03:10;1.20;;;0.47;;
74196;SDS011;62555;52.678;4.900;2023-07-20T02:05:36;0.90;;;0.50;;
74196;SDS011;62555;52.678;4.900;2023-07-20T02:08:02;0.70;;;0.50;;
74196;SDS011;62555;52.678;4.900;2023-07-20T02:10:27;0.40;;;0.40;;
74196;SDS011;62555;52.678;4.900;2023-07-20T02:12:52;1.37;;;0.80;;
74196;SDS011;62555;52.678;4.900;2023-07-20T02:15:17;0.53;;;0.50;;
74196;SDS011;62555;52.678;4.900;2023-07-20T02:17:43;0.73;;;0.43;;
74196;SDS011;62555;52.678;4.900;2023-07-20T02:20:09;0.60;;;0.50;;
74196;SDS011;62555;52.678;4.900;2023-07-20T02:22:37;1.00;;;0.55;;
74196;SDS011;62555;52.678;4.900;2023-07-20T02:25:03;0.60;;;0.50;;
74196;SDS011;62555;52.678;4.900;2023-07-20T02:27:29;1.50;;;0.57;;
74196;SDS011;62555;52.678;4.900;2023-07-20T02:29:54;0.47;;;0.47;;
74196;SDS011;62555;52.678;4.900;2023-07-20T02:32:19;1.07;;;0.60;;
74196;SDS011;62555;52.678;4.900;2023-07-20T02:34:44;0.63;;;0.43;;
74196;SDS011;62555;52.678;4.900;2023-07-20T02:37:10;0.50;;;0.50;;
74196;SDS011;62555;52.678;4.900;2023-07-20T02:39:37;0.80;;;0.60;;
74196;SDS011;62555;52.678;4.900;2023-07-20T02:42:03;0.50;;;0.50;;
74196;SDS011;62555;52.678;4.900;2023-07-20T02:44:28;0.70;;;0.50;;
74196;SDS011;62555;52.678;4.900;2023-07-20T02:46:53;1.07;;;0.73;;
74196;SDS011;62555;52.678;4.900;2023-07-20T02:49:18;0.90;;;0.60;;
74196;SDS011;62555;52.678;4.900;2023-07-20T02:51:44;1.60;;;0.50;;
74196;SDS011;62555;52.678;4.900;2023-07-20T02:54:09;0.43;;;0.43;;
74196;SDS011;62555;52.678;4.900;2023-07-20T02:56:35;0.70;;;0.70;;
74196;SDS011;62555;52.678;4.900;2023-07-20T02:59:01;0.70;;;0.70;;
74196;SDS011;62555;52.678;4.900;2023-07-20T03:01:26;0.40;;;0.40;;
74196;SDS011;62555;52.678;4.900;2023-07-20T03:03:54;0.50;;;0.50;;
74196;SDS011;62555;52.678;4.900;2023-07-20T03:06:19;0.80;;;0.70;;
74196;SDS011;62555;52.678;4.900;2023-07-20T03:08:44;0.67;;;0.50;;
74196;SDS011;62555;52.678;4.900;2023-07-20T03:11:12;0.30;;;0.30;;
74196;SDS011;62555;52.678;4.900;2023-07-20T03:13:37;0.63;;;0.50;;
74196;SDS011;62555;52.678;4.900;2023-07-20T03:16:03;0.40;;;0.40;;
74196;SDS011;62555;52.678;4.900;2023-07-20T03:18:28;1.02;;;0.45;;
74196;SDS011;62555;52.678;4.900;2023-07-20T03:20:53;0.80;;;0.50;;
74196;SDS011;62555;52.678;4.900;2023-07-20T03:23:18;0.40;;;0.40;;
74196;SDS011;62555;52.678;4.900;2023-07-20T03:25:43;0.73;;;0.40;;
74196;SDS011;62555;52.678;4.900;2023-07-20T03:28:09;0.40;;;0.40;;
74196;SDS011;62555;52.678;4.900;2023-07-20T03:30:34;1.07;;;0.60;;
74196;SDS011;62555;52.678;4.900;2023-07-20T03:32:59;0.82;;;0.40;;
74196;SDS011;62555;52.678;4.900;2023-07-20T03:35:25;1.17;;;0.40;;
74196;SDS011;62555;52.678;4.900;2023-07-20T03:37:50;0.63;;;0.40;;
74196;SDS011;62555;52.678;4.900;2023-07-20T03:40:15;0.40;;;0.40;;
74196;SDS011;62555;52.678;4.900;2023-07-20T03:42:41;0.40;;;0.40;;
74196;SDS011;62555;52.678;4.900;2023-07-20T03:45:06;0.40;;;0.40;;
74196;SDS011;62555;52.678;4.900;2023-07-20T03:47:32;0.52;;;0.50;;
74196;SDS011;62555;52.678;4.900;2023-07-20T03:49:57;0.30;;;0.30;;
74196;SDS011;62555;52.678;4.900;2023-07-20T03:52:23;0.50;;;0.50;;
74196;SDS011;62555;52.678;4.900;2023-07-20T03:54:48;1.10;;;0.55;;
74196;SDS011;62555;52.678;4.900;2023-07-20T03:57:13;1.30;;;0.60;;
74196;SDS011;62555;52.678;4.900;2023-07-20T03:59:39;0.70;;;0.40;;
74196;SDS011;62555;52.678;4.900;2023-07-20T04:02:04;0.67;;;0.50;;
74196;SDS011;62555;52.678;4.900;2023-07-20T04:04:30;2.60;;;0.70;;
74196;SDS011;62555;52.678;4.900;2023-07-20T04:06:56;0.98;;;0.43;;
74196;SDS011;62555;52.678;4.900;2023-07-20T04:09:21;0.40;;;0.40;;
74196;SDS011;62555;52.678;4.900;2023-07-20T04:11:46;0.53;;;0.43;;
74196;SDS011;62555;52.678;4.900;2023-07-20T04:14:11;1.17;;;0.47;;
74196;SDS011;62555;52.678;4.900;2023-07-20T04:16:36;0.67;;;0.37;;
74196;SDS011;62555;52.678;4.900;2023-07-20T04:19:02;0.40;;;0.40;;
74196;SDS011;62555;52.678;4.900;2023-07-20T04:21:27;0.70;;;0.57;;
74196;SDS011;62555;52.678;4.900;2023-07-20T04:23:53;1.17;;;0.47;;
74196;SDS011;62555;52.678;4.900;2023-07-20T04:26:18;0.83;;;0.47;;
74196;SDS011;62555;52.678;4.900;2023-07-20T04:28:43;0.60;;;0.57;;
74196;SDS011;62555;52.678;4.900;2023-07-20T04:31:14;0.93;;;0.60;;
74196;SDS011;62555;52.678;4.900;2023-07-20T04:33:40;0.85;;;0.50;;
74196;SDS011;62555;52.678;4.900;2023-07-20T04:36:06;1.27;;;0.43;;
74196;SDS011;62555;52.678;4.900;2023-07-20T04:38:31;0.93;;;0.50;;
74196;SDS011;62555;52.678;4.900;2023-07-20T04:40:56;0.70;;;0.50;;
74196;SDS011;62555;52.678;4.900;2023-07-20T04:43:21;0.40;;;0.40;;
74196;SDS011;62555;52.678;4.900;2023-07-20T04:45:47;0.40;;;0.40;;
74196;SDS011;62555;52.678;4.900;2023-07-20T04:48:13;0.63;;;0.50;;
74196;SDS011;62555;52.678;4.900;2023-07-20T04:50:39;1.45;;;0.60;;
74196;SDS011;62555;52.678;4.900;2023-07-20T04:53:05;0.60;;;0.45;;
74196;SDS011;62555;52.678;4.900;2023-07-20T04:55:30;0.35;;;0.35;;
74196;SDS011;62555;52.678;4.900;2023-07-20T04:57:57;0.43;;;0.40;;
74196;SDS011;62555;52.678;4.900;2023-07-20T05:00:22;0.90;;;0.43;;
74196;SDS011;62555;52.678;4.900;2023-07-20T05:02:47;0.50;;;0.50;;
74196;SDS011;62555;52.678;4.900;2023-07-20T05:05:14;0.35;;;0.30;;
74196;SDS011;62555;52.678;4.900;2023-07-20T05:07:39;0.52;;;0.40;;
74196;SDS011;62555;52.678;4.900;2023-07-20T05:10:05;0.60;;;0.40;;
74196;SDS011;62555;52.678;4.900;2023-07-20T05:12:30;0.98;;;0.50;;
74196;SDS011;62555;52.678;4.900;2023-07-20T05:14:55;0.50;;;0.30;;
74196;SDS011;62555;52.678;4.900;2023-07-20T05:17:20;0.80;;;0.60;;
74196;SDS011;62555;52.678;4.900;2023-07-20T05:19:45;0.70;;;0.40;;
74196;SDS011;62555;52.678;4.900;2023-07-20T05:22:12;0.43;;;0.43;;
74196;SDS011;62555;52.678;4.900;2023-07-20T05:24:38;1.15;;;0.60;;
74196;SDS011;62555;52.678;4.900;2023-07-20T05:27:03;0.73;;;0.53;;
74196;SDS011;62555;52.678;4.900;2023-07-20T05:29:28;0.40;;;0.40;;
74196;SDS011;62555;52.678;4.900;2023-07-20T05:31:53;0.53;;;0.40;;
74196;SDS011;62555;52.678;4.900;2023-07-20T05:34:18;0.60;;;0.40;;
74196;SDS011;62555;52.678;4.900;2023-07-20T05:36:44;0.40;;;0.40;;
74196;SDS011;62555;52.678;4.900;2023-07-20T05:39:09;0.50;;;0.40;;
74196;SDS011;62555;52.678;4.900;2023-07-20T05:41:34;1.07;;;0.40;;
74196;SDS011;62555;52.678;4.900;2023-07-20T05:43:59;0.43;;;0.43;;
74196;SDS011;62555;52.678;4.900;2023-07-20T05:46:25;0.43;;;0.43;;
74196;SDS011;62555;52.678;4.900;2023-07-20T05:48:50;0.53;;;0.33;;
74196;SDS011;62555;52.678;4.900;2023-07-20T05:51:15;0.60;;;0.50;;
74196;SDS011;62555;52.678;4.900;2023-07-20T05:53:40;0.40;;;0.40;;
74196;SDS011;62555;52.678;4.900;2023-07-20T05:56:06;0.50;;;0.40;;
74196;SDS011;62555;52.678;4.900;2023-07-20T05:58:34;0.70;;;0.50;;
74196;SDS011;62555;52.678;4.900;2023-07-20T06:01:00;1.27;;;0.40;;
74196;SDS011;62555;52.678;4.900;2023-07-20T06:03:25;0.70;;;0.67;;
74196;SDS011;62555;52.678;4.900;2023-07-20T06:05:50;1.13;;;0.50;;
74196;SDS011;62555;52.678;4.900;2023-07-20T06:08:16;0.63;;;0.63;;
74196;SDS011;62555;52.678;4.900;2023-07-20T06:10:42;0.50;;;0.50;;
74196;SDS011;62555;52.678;4.900;2023-07-20T06:13:07;0.53;;;0.50;;
74196;SDS011;62555;52.678;4.900;2023-07-20T06:15:32;0.83;;;0.60;;
74196;SDS011;62555;52.678;4.900;2023-07-20T06:20:25;1.25;;;0.60;;
74196;SDS011;62555;52.678;4.900;2023-07-20T06:22:51;0.57;;;0.50;;
74196;SDS011;62555;52.678;4.900;2023-07-20T06:25:16;0.47;;;0.47;;
74196;SDS011;62555;52.678;4.900;2023-07-20T06:27:42;0.63;;;0.50;;
74196;SDS011;62555;52.678;4.900;2023-07-20T06:30:07;1.02;;;0.40;;
74196;SDS011;62555;52.678;4.900;2023-07-20T06:32:33;2.80;;;1.20;;
74196;SDS011;62555;52.678;4.900;2023-07-20T06:34:58;2.60;;;1.10;;
74196;SDS011;62555;52.678;4.900;2023-07-20T06:37:23;2.60;;;1.77;;
74196;SDS011;62555;52.678;4.900;2023-07-20T06:39:49;3.08;;;1.60;;
74196;SDS011;62555;52.678;4.900;2023-07-20T06:42:14;1.43;;;1.00;;
74196;SDS011;62555;52.678;4.900;2023-07-20T06:44:39;1.03;;;0.87;;
74196;SDS011;62555;52.678;4.900;2023-07-20T06:47:04;2.47;;;0.70;;
74196;SDS011;62555;52.678;4.900;2023-07-20T06:49:30;2.75;;;1.23;;
74196;SDS011;62555;52.678;4.900;2023-07-20T06:51:55;11.80;;;7.67;;
74196;SDS011;62555;52.678;4.900;2023-07-20T06:54:20;1.80;;;1.60;;
74196;SDS011;62555;52.678;4.900;2023-07-20T06:56:45;3.67;;;1.93;;
74196;SDS011;62555;52.678;4.900;2023-07-20T06:59:10;3.83;;;2.63;;
74196;SDS011;62555;52.678;4.900;2023-07-20T07:01:36;6.80;;;3.40;;
74196;SDS011;62555;52.678;4.900;2023-07-20T07:04:01;8.23;;;5.37;;
74196;SDS011;62555;52.678;4.900;2023-07-20T07:06:26;6.45;;;3.35;;
74196;SDS011;62555;52.678;4.900;2023-07-20T07:08:52;18.73;;;9.55;;
74196;SDS011;62555;52.678;4.900;2023-07-20T07:11:18;7.97;;;4.25;;
74196;SDS011;62555;52.678;4.900;2023-07-20T07:13:43;21.17;;;14.90;;
74196;SDS011;62555;52.678;4.900;2023-07-20T07:16:08;70.40;;;50.30;;
74196;SDS011;62555;52.678;4.900;2023-07-20T07:18:33;71.37;;;45.23;;
74196;SDS011;62555;52.678;4.900;2023-07-20T07:20:58;200.83;;;150.33;;
74196;SDS011;62555;52.678;4.900;2023-07-20T07:23:24;275.40;;;207.83;;
74196;SDS011;62555;52.678;4.900;2023-07-20T07:25:49;219.53;;;161.83;;
74196;SDS011;62555;52.678;4.900;2023-07-20T07:28:14;149.67;;;96.87;;
74196;SDS011;62555;52.678;4.900;2023-07-20T07:30:39;171.93;;;112.75;;
74196;SDS011;62555;52.678;4.900;2023-07-20T07:33:05;190.23;;;131.07;;
74196;SDS011;62555;52.678;4.900;2023-07-20T07:35:30;112.55;;;65.70;;
74196;SDS011;62555;52.678;4.900;2023-07-20T07:37:55;106.67;;;67.47;;
74196;SDS011;62555;52.678;4.900;2023-07-20T07:40:21;62.17;;;36.47;;
74196;SDS011;62555;52.678;4.900;2023-07-20T07:42:46;19.30;;;8.23;;
74196;SDS011;62555;52.678;4.900;2023-07-20T07:45:12;6.03;;;2.78;;
74196;SDS011;62555;52.678;4.900;2023-07-20T07:47:38;6.97;;;1.80;;
74196;SDS011;62555;52.678;4.900;2023-07-20T07:50:04;1.97;;;1.10;;
74196;SDS011;62555;52.678;4.900;2023-07-20T07:52:29;0.82;;;0.80;;
74196;SDS011;62555;52.678;4.900;2023-07-20T07:54:54;2.33;;;1.03;;
74196;SDS011;62555;52.678;4.900;2023-07-20T07:57:19;1.30;;;0.80;;
74196;SDS011;62555;52.678;4.900;2023-07-20T07:59:45;1.00;;;0.90;;
74196;SDS011;62555;52.678;4.900;2023-07-20T08:02:10;1.10;;;0.93;;
74196;SDS011;62555;52.678;4.900;2023-07-20T08:04:35;1.10;;;0.70;;
74196;SDS011;62555;52.678;4.900;2023-07-20T08:07:02;1.40;;;0.80;;
74196;SDS011;62555;52.678;4.900;2023-07-20T08:09:27;0.60;;;0.60;;
74196;SDS011;62555;52.678;4.900;2023-07-20T08:11:52;0.90;;;0.60;;
74196;SDS011;62555;52.678;4.900;2023-07-20T08:14:18;0.67;;;0.40;;
74196;SDS011;62555;52.678;4.900;2023-07-20T08:16:44;0.68;;;0.68;;
74196;SDS011;62555;52.678;4.900;2023-07-20T08:19:10;0.75;;;0.75;;
74196;SDS011;62555;52.678;4.900;2023-07-20T08:21:35;0.90;;;0.60;;
74196;SDS011;62555;52.678;4.900;2023-07-20T08:24:01;1.17;;;0.70;;
74196;SDS011;62555;52.678;4.900;2023-07-20T08:26:26;0.50;;;0.50;;
74196;SDS011;62555;52.678;4.900;2023-07-20T08:28:51;1.00;;;0.80;;
74196;SDS011;62555;52.678;4.900;2023-07-20T08:31:16;0.70;;;0.70;;
74196;SDS011;62555;52.678;4.900;2023-07-20T08:33:42;0.85;;;0.50;;
74196;SDS011;62555;52.678;4.900;2023-07-20T08:36:07;0.97;;;0.70;;
74196;SDS011;62555;52.678;4.900;2023-07-20T08:38:32;0.40;;;0.40;;
74196;SDS011;62555;52.678;4.900;2023-07-20T08:40:58;1.07;;;0.70;;
74196;SDS011;62555;52.678;4.900;2023-07-20T08:43:24;0.60;;;0.55;;
74196;SDS011;62555;52.678;4.900;2023-07-20T08:45:50;1.25;;;0.70;;
74196;SDS011;62555;52.678;4.900;2023-07-20T08:48:16;0.73;;;0.68;;
74196;SDS011;62555;52.678;4.900;2023-07-20T08:50:43;0.65;;;0.52;;
74196;SDS011;62555;52.678;4.900;2023-07-20T08:53:09;0.50;;;0.50;;
74196;SDS011;62555;52.678;4.900;2023-07-20T08:55:35;0.80;;;0.50;;
74196;SDS011;62555;52.678;4.900;2023-07-20T08:58:00;0.87;;;0.70;;
74196;SDS011;62555;52.678;4.900;2023-07-20T09:00:27;1.63;;;0.60;;
74196;SDS011;62555;52.678;4.900;2023-07-20T09:02:55;0.77;;;0.50;;
74196;SDS011;62555;52.678;4.900;2023-07-20T09:05:22;0.70;;;0.50;;
74196;SDS011;62555;52.678;4.900;2023-07-20T09:07:48;1.85;;;0.63;;
74196;SDS011;62555;52.678;4.900;2023-07-20T09:10:14;0.98;;;0.75;;
74196;SDS011;62555;52.678;4.900;2023-07-20T09:12:39;0.57;;;0.57;;
74196;SDS011;62555;52.678;4.900;2023-07-20T09:15:06;0.93;;;0.70;;
74196;SDS011;62555;52.678;4.900;2023-07-20T09:17:31;0.60;;;0.60;;
74196;SDS011;62555;52.678;4.900;2023-07-20T09:19:56;0.70;;;0.60;;
74196;SDS011;62555;52.678;4.900;2023-07-20T09:22:22;0.60;;;0.60;;
74196;SDS011;62555;52.678;4.900;2023-07-20T09:24:48;0.73;;;0.60;;
74196;SDS011;62555;52.678;4.900;2023-07-20T09:27:13;1.70;;;0.77;;
74196;SDS011;62555;52.678;4.900;2023-07-20T09:29:51;0.80;;;0.60;;
74196;SDS011;62555;52.678;4.900;2023-07-20T09:32:20;0.63;;;0.60;;
74196;SDS011;62555;52.678;4.900;2023-07-20T09:34:46;0.77;;;0.70;;
74196;SDS011;62555;52.678;4.900;2023-07-20T09:37:11;0.70;;;0.63;;
74196;SDS011;62555;52.678;4.900;2023-07-20T09:39:46;0.73;;;0.70;;
74196;SDS011;62555;52.678;4.900;2023-07-20T09:42:11;0.60;;;0.60;;
74196;SDS011;62555;52.678;4.900;2023-07-20T09:44:38;0.70;;;0.63;;
74196;SDS011;62555;52.678;4.900;2023-07-20T09:47:03;0.60;;;0.60;;
74196;SDS011;62555;52.678;4.900;2023-07-20T09:49:28;0.60;;;0.60;;
74196;SDS011;62555;52.678;4.900;2023-07-20T09:51:53;0.67;;;0.67;;
74196;SDS011;62555;52.678;4.900;2023-07-20T09:54:20;0.50;;;0.50;;
74196;SDS011;62555;52.678;4.900;2023-07-20T09:56:46;0.70;;;0.70;;
74196;SDS011;62555;52.678;4.900;2023-07-20T09:59:13;0.70;;;0.60;;
74196;SDS011;62555;52.678;4.900;2023-07-20T10:01:39;1.13;;;0.80;;
74196;SDS011;62555;52.678;4.900;2023-07-20T10:04:07;1.17;;;0.68;;
74196;SDS011;62555;52.678;4.900;2023-07-20T10:06:34;0.68;;;0.60;;
74196;SDS011;62555;52.678;4.900;2023-07-20T10:09:01;1.02;;;0.60;;
74196;SDS011;62555;52.678;4.900;2023-07-20T10:11:29;1.02;;;0.60;;
74196;SDS011;62555;52.678;4.900;2023-07-20T10:13:55;0.70;;;0.47;;
74196;SDS011;62555;52.678;4.900;2023-07-20T10:16:34;0.98;;;0.75;;
74196;SDS011;62555;52.678;4.900;2023-07-20T10:22:03;2.63;;;1.38;;
74196;SDS011;62555;52.678;4.900;2023-07-20T10:24:29;2.55;;;1.30;;
74196;SDS011;62555;52.678;4.900;2023-07-20T10:26:55;1.95;;;1.48;;
74196;SDS011;62555;52.678;4.900;2023-07-20T10:29:20;3.83;;;2.50;;
74196;SDS011;62555;52.678;4.900;2023-07-20T10:31:46;4.80;;;2.65;;
74196;SDS011;62555;52.678;4.900;2023-07-20T10:34:11;7.83;;;3.83;;
74196;SDS011;62555;52.678;4.900;2023-07-20T10:36:43;10.65;;;5.00;;
74196;SDS011;62555;52.678;4.900;2023-07-20T10:39:13;11.30;;;5.85;;
74196;SDS011;62555;52.678;4.900;2023-07-20T10:41:47;14.60;;;8.25;;
74196;SDS011;62555;52.678;4.900;2023-07-20T10:44:12;19.93;;;10.17;;
74196;SDS011;62555;52.678;4.900;2023-07-20T10:49:04;26.37;;;15.77;;
74196;SDS011;62555;52.678;4.900;2023-07-20T10:51:29;33.20;;;17.45;;
74196;SDS011;62555;52.678;4.900;2023-07-20T10:53:55;41.70;;;22.02;;
74196;SDS011;62555;52.678;4.900;2023-07-20T10:58:47;43.65;;;25.63;;
74196;SDS011;62555;52.678;4.900;2023-07-20T11:01:15;50.70;;;28.50;;
74196;SDS011;62555;52.678;4.900;2023-07-20T11:03:41;58.42;;;31.17;;
74196;SDS011;62555;52.678;4.900;2023-07-20T11:09:05;86.80;;;49.15;;
74196;SDS011;62555;52.678;4.900;2023-07-20T11:11:35;101.55;;;57.42;;
74196;SDS011;62555;52.678;4.900;2023-07-20T11:14:05;118.47;;;65.90;;
74196;SDS011;62555;52.678;4.900;2023-07-20T11:16:34;145.05;;;85.57;;
74196;SDS011;62555;52.678;4.900;2023-07-20T11:19:00;151.65;;;91.22;;
74196;SDS011;62555;52.678;4.900;2023-07-20T11:21:25;167.77;;;102.18;;
74196;SDS011;62555;52.678;4.900;2023-07-20T11:23:52;171.85;;;103.95;;
74196;SDS011;62555;52.678;4.900;2023-07-20T11:26:17;184.77;;;110.28;;
74196;SDS011;62555;52.678;4.900;2023-07-20T11:28:47;193.57;;;118.15;;
74196;SDS011;62555;52.678;4.900;2023-07-20T11:31:14;205.10;;;120.50;;
74196;SDS011;62555;52.678;4.900;2023-07-20T11:36:08;190.25;;;115.55;;
74196;SDS011;62555;52.678;4.900;2023-07-20T11:38:33;204.98;;;126.72;;
74196;SDS011;62555;52.678;4.900;2023-07-20T11:40:58;198.33;;;124.27;;
74196;SDS011;62555;52.678;4.900;2023-07-20T11:43:23;200.47;;;127.13;;
74196;SDS011;62555;52.678;4.900;2023-07-20T11:45:49;203.35;;;124.88;;
74196;SDS011;62555;52.678;4.900;2023-07-20T11:48:17;191.05;;;120.82;;
74196;SDS011;62555;52.678;4.900;2023-07-20T11:50:42;194.55;;;122.13;;
74196;SDS011;62555;52.678;4.900;2023-07-20T11:53:07;203.30;;;122.63;;
74196;SDS011;62555;52.678;4.900;2023-07-20T11:55:33;194.45;;;120.22;;
74196;SDS011;62555;52.678;4.900;2023-07-20T11:58:05;190.97;;;118.27;;
74196;SDS011;62555;52.678;4.900;2023-07-20T12:00:31;196.43;;;120.78;;
74196;SDS011;62555;52.678;4.900;2023-07-20T12:02:56;184.77;;;119.25;;
74196;SDS011;62555;52.678;4.900;2023-07-20T12:05:22;187.93;;;116.67;;
74196;SDS011;62555;52.678;4.900;2023-07-20T12:07:47;183.68;;;116.05;;
74196;SDS011;62555;52.678;4.900;2023-07-20T12:10:16;182.05;;;114.18;;
74196;SDS011;62555;52.678;4.900;2023-07-20T12:12:42;175.38;;;113.97;;
74196;SDS011;62555;52.678;4.900;2023-07-20T12:15:14;181.80;;;112.50;;
74196;SDS011;62555;52.678;4.900;2023-07-20T12:17:43;175.10;;;107.88;;
74196;SDS011;62555;52.678;4.900;2023-07-20T12:20:09;173.40;;;105.97;;
74196;SDS011;62555;52.678;4.900;2023-07-20T12:22:41;170.27;;;107.68;;
74196;SDS011;62555;52.678;4.900;2023-07-20T12:25:08;169.57;;;105.80;;
74196;SDS011;62555;52.678;4.900;2023-07-20T12:27:35;166.35;;;106.45;;
74196;SDS011;62555;52.678;4.900;2023-07-20T12:30:01;163.52;;;102.75;;
74196;SDS011;62555;52.678;4.900;2023-07-20T12:32:26;162.67;;;103.00;;
74196;SDS011;62555;52.678;4.900;2023-07-20T12:34:51;157.07;;;101.13;;
74196;SDS011;62555;52.678;4.900;2023-07-20T12:37:17;156.20;;;99.83;;
74196;SDS011;62555;52.678;4.900;2023-07-20T12:39:43;155.55;;;100.05;;
74196;SDS011;62555;52.678;4.900;2023-07-20T12:42:11;150.07;;;95.15;;
74196;SDS011;62555;52.678;4.900;2023-07-20T12:44:37;147.87;;;94.13;;
74196;SDS011;62555;52.678;4.900;2023-07-20T12:47:02;146.33;;;93.67;;
74196;SDS011;62555;52.678;4.900;2023-07-20T12:49:27;152.27;;;94.93;;
74196;SDS011;62555;52.678;4.900;2023-07-20T12:51:52;144.57;;;92.93;;
74196;SDS011;62555;52.678;4.900;2023-07-20T12:54:18;140.23;;;89.27;;
74196;SDS011;62555;52.678;4.900;2023-07-20T12:56:43;133.83;;;85.77;;
74196;SDS011;62555;52.678;4.900;2023-07-20T12:59:08;137.17;;;88.33;;
74196;SDS011;62555;52.678;4.900;2023-07-20T13:01:33;130.47;;;85.83;;
74196;SDS011;62555;52.678;4.900;2023-07-20T13:03:59;128.20;;;82.03;;
74196;SDS011;62555;52.678;4.900;2023-07-20T13:06:24;124.33;;;80.63;;
74196;SDS011;62555;52.678;4.900;2023-07-20T13:08:49;124.13;;;79.87;;
74196;SDS011;62555;52.678;4.900;2023-07-20T13:11:15;122.68;;;78.57;;
74196;SDS011;62555;52.678;4.900;2023-07-20T13:13:41;120.50;;;76.47;;
74196;SDS011;62555;52.678;4.900;2023-07-20T13:16:06;115.32;;;73.93;;
74196;SDS011;62555;52.678;4.900;2023-07-20T13:18:31;116.53;;;74.73;;
74196;SDS011;62555;52.678;4.900;2023-07-20T13:20:56;113.17;;;74.37;;
74196;SDS011;62555;52.678;4.900;2023-07-20T13:23:22;110.63;;;74.18;;
74196;SDS011;62555;52.678;4.900;2023-07-20T13:25:47;111.43;;;70.50;;
74196;SDS011;62555;52.678;4.900;2023-07-20T13:28:12;105.43;;;69.67;;
74196;SDS011;62555;52.678;4.900;2023-07-20T13:30:38;108.57;;;70.20;;
74196;SDS011;62555;52.678;4.900;2023-07-20T13:33:03;104.15;;;69.63;;
74196;SDS011;62555;52.678;4.900;2023-07-20T13:35:28;105.15;;;64.28;;
74196;SDS011;62555;52.678;4.900;2023-07-20T13:37:53;97.03;;;64.37;;
74196;SDS011;62555;52.678;4.900;2023-07-20T13:40:19;102.40;;;64.40;;
74196;SDS011;62555;52.678;4.900;2023-07-20T13:42:44;98.40;;;62.13;;
74196;SDS011;62555;52.678;4.900;2023-07-20T13:45:10;92.13;;;61.00;;
74196;SDS011;62555;52.678;4.900;2023-07-20T13:47:35;93.50;;;60.20;;
74196;SDS011;62555;52.678;4.900;2023-07-20T13:50:00;89.27;;;58.07;;
74196;SDS011;62555;52.678;4.900;2023-07-20T13:52:26;85.47;;;56.58;;
74196;SDS011;62555;52.678;4.900;2023-07-20T13:54:51;87.13;;;56.50;;
74196;SDS011;62555;52.678;4.900;2023-07-20T13:57:16;86.07;;;57.13;;
74196;SDS011;62555;52.678;4.900;2023-07-20T13:59:42;87.47;;;55.83;;
74196;SDS011;62555;52.678;4.900;2023-07-20T14:02:07;84.43;;;55.38;;
74196;SDS011;62555;52.678;4.900;2023-07-20T14:04:32;89.30;;;56.67;;
74196;SDS011;62555;52.678;4.900;2023-07-20T14:06:57;83.53;;;53.72;;
74196;SDS011;62555;52.678;4.900;2023-07-20T14:09:23;82.17;;;53.07;;
74196;SDS011;62555;52.678;4.900;2023-07-20T14:11:49;80.63;;;50.00;;
74196;SDS011;62555;52.678;4.900;2023-07-20T14:14:14;77.53;;;49.93;;
74196;SDS011;62555;52.678;4.900;2023-07-20T14:16:39;78.67;;;49.17;;
74196;SDS011;62555;52.678;4.900;2023-07-20T14:19:04;70.27;;;47.57;;
74196;SDS011;62555;52.678;4.900;2023-07-20T14:21:30;74.27;;;47.93;;
74196;SDS011;62555;52.678;4.900;2023-07-20T14:23:56;71.95;;;48.03;;
74196;SDS011;62555;52.678;4.900;2023-07-20T14:26:22;72.55;;;46.05;;
74196;SDS011;62555;52.678;4.900;2023-07-20T14:28:48;68.05;;;45.10;;
74196;SDS011;62555;52.678;4.900;2023-07-20T14:31:13;69.47;;;45.13;;
74196;SDS011;62555;52.678;4.900;2023-07-20T14:33:38;69.55;;;44.08;;
74196;SDS011;62555;52.678;4.900;2023-07-20T14:36:04;66.70;;;43.42;;
74196;SDS011;62555;52.678;4.900;2023-07-20T14:38:31;65.28;;;43.33;;
74196;SDS011;62555;52.678;4.900;2023-07-20T14:40:56;63.47;;;41.20;;
74196;SDS011;62555;52.678;4.900;2023-07-20T14:43:22;65.25;;;42.05;;
74196;SDS011;62555;52.678;4.900;2023-07-20T14:45:47;62.23;;;41.93;;
74196;SDS011;62555;52.678;4.900;2023-07-20T14:48:12;66.53;;;42.03;;
74196;SDS011;62555;52.678;4.900;2023-07-20T14:50:37;61.03;;;40.27;;